createdAt,value
2023-04-25T00:00:45.250Z,7.67
2023-04-25T00:01:47.703Z,7.55
2023-04-25T00:02:49.539Z,7.83
2023-04-25T00:03:52.591Z,7.84
2023-04-25T00:04:55.734Z,8.07
2023-04-25T00:05:58.956Z,8.06
2023-04-25T00:07:02.551Z,7.91
2023-04-25T00:08:05.804Z,8.16
2023-04-25T00:09:09.988Z,7.82
2023-04-25T00:10:12.903Z,7.66
2023-04-25T00:11:14.420Z,7.74
2023-04-25T00:12:17.973Z,7.79
2023-04-25T00:13:20.311Z,7.91
2023-04-25T00:14:23.843Z,7.81
2023-04-25T00:15:25.352Z,7.81
2023-04-25T00:16:28.050Z,7.64
2023-04-25T00:17:29.894Z,7.82
2023-04-25T00:18:34.260Z,7.85
2023-04-25T00:19:36.069Z,7.97
2023-04-25T00:20:38.607Z,8.15
2023-04-25T00:21:41.429Z,7.63
2023-04-25T00:22:45.356Z,7.30
2023-04-25T00:23:47.318Z,7.21
2023-04-25T00:24:49.869Z,6.90
2023-04-25T00:25:51.901Z,7.19
2023-04-25T00:26:54.427Z,7.51
2023-04-25T00:27:56.002Z,7.73
2023-04-25T00:28:58.432Z,7.71
2023-04-25T00:29:59.924Z,7.30
2023-04-25T00:31:02.404Z,7.15
2023-04-25T00:32:04.258Z,6.65
2023-04-25T00:33:06.789Z,6.63
2023-04-25T00:34:09.140Z,6.43
2023-04-25T00:35:11.775Z,6.34
2023-04-25T00:36:13.589Z,6.37
2023-04-25T00:37:16.166Z,6.33
2023-04-25T00:38:19.176Z,6.17
2023-04-25T00:39:21.628Z,6.13
2023-04-25T00:40:23.268Z,6.38
2023-04-25T00:41:27.785Z,6.39
2023-04-25T00:42:30.805Z,6.48
2023-04-25T00:43:34.829Z,6.60
2023-04-25T00:44:36.620Z,6.38
2023-04-25T00:45:41.055Z,6.28
2023-04-25T00:46:43.375Z,6.33
2023-04-25T00:47:46.326Z,6.39
2023-04-25T00:48:47.924Z,6.66
2023-04-25T00:49:50.412Z,6.82
2023-04-25T00:50:53.779Z,7.01
2023-04-25T00:51:57.008Z,7.17
2023-04-25T00:52:58.581Z,7.28
2023-04-25T00:54:03.564Z,7.44
2023-04-25T00:55:06.192Z,7.55
2023-04-25T00:56:08.756Z,7.52
2023-04-25T00:57:11.617Z,7.71
2023-04-25T00:58:14.140Z,7.83
2023-04-25T00:59:16.263Z,7.59
2023-04-25T01:00:22.498Z,7.66
2023-04-25T01:01:24.141Z,7.16
2023-04-25T01:02:28.042Z,6.64
2023-04-25T01:03:32.032Z,6.69
2023-04-25T01:04:34.805Z,6.96
2023-04-25T01:05:36.504Z,7.27
2023-04-25T01:06:39.303Z,6.66
2023-04-25T01:07:41.642Z,6.92
2023-04-25T01:08:44.507Z,6.54
2023-04-25T01:09:47.547Z,6.79
2023-04-25T01:10:49.982Z,7.00
2023-04-25T01:11:51.719Z,7.14
2023-04-25T01:12:54.245Z,7.31
2023-04-25T01:13:55.732Z,7.56
2023-04-25T01:14:58.275Z,7.58
2023-04-25T01:16:00.370Z,7.58
2023-04-25T01:17:03.711Z,7.30
2023-04-25T01:18:06.487Z,7.41
2023-04-25T01:19:12.920Z,7.63
2023-04-25T01:20:15.272Z,7.62
2023-04-25T01:21:19.246Z,7.65
2023-04-25T01:22:21.753Z,7.46
2023-04-25T01:23:24.826Z,7.63
2023-04-25T01:24:26.924Z,7.78
2023-04-25T01:25:29.924Z,7.86
2023-04-25T01:26:31.830Z,7.64
2023-04-25T01:27:34.682Z,7.66
2023-04-25T01:28:36.258Z,7.82
2023-04-25T01:29:39.053Z,7.79
2023-04-25T01:30:41.589Z,7.80
2023-04-25T01:31:45.045Z,7.88
2023-04-25T01:32:47.491Z,7.88
2023-04-25T01:33:50.718Z,7.96
2023-04-25T01:34:52.385Z,7.95
2023-04-25T01:35:54.862Z,7.88
2023-04-25T01:36:59.972Z,7.68
2023-04-25T01:38:02.722Z,7.68
2023-04-25T01:39:04.559Z,7.23
2023-04-25T01:40:09.461Z,6.80
2023-04-25T01:41:11.132Z,6.37
2023-04-25T01:42:14.894Z,6.33
2023-04-25T01:43:16.455Z,6.10
2023-04-25T01:44:18.949Z,5.80
2023-04-25T01:45:20.859Z,5.63
2023-04-25T01:46:23.768Z,5.48
2023-04-25T01:47:25.529Z,5.43
2023-04-25T01:48:28.209Z,5.42
2023-04-25T01:49:29.723Z,5.52
2023-04-25T01:50:32.309Z,5.28
2023-04-25T01:51:34.425Z,5.22
2023-04-25T01:52:38.345Z,5.24
2023-04-25T01:53:40.683Z,5.11
2023-04-25T01:54:45.665Z,5.02
2023-04-25T01:55:47.194Z,4.98
2023-04-25T01:56:52.555Z,5.22
2023-04-25T01:57:54.098Z,5.13
2023-04-25T01:58:56.511Z,5.09
2023-04-25T02:00:00.940Z,4.91
2023-04-25T02:01:03.768Z,4.89
2023-04-25T02:02:05.617Z,4.83
2023-04-25T02:03:08.854Z,4.86
2023-04-25T02:04:10.626Z,4.89
2023-04-25T02:05:13.168Z,5.05
2023-04-25T02:06:14.704Z,5.00
2023-04-25T02:07:17.584Z,4.92
2023-04-25T02:08:20.376Z,4.94
2023-04-25T02:09:22.846Z,4.85
2023-04-25T02:10:24.347Z,4.84
2023-04-25T02:11:26.773Z,4.84
2023-04-25T02:12:28.412Z,4.92
2023-04-25T02:13:30.975Z,4.71
2023-04-25T02:14:32.423Z,4.70
2023-04-25T02:15:34.930Z,4.52
2023-04-25T02:16:36.914Z,4.56
2023-04-25T02:17:40.138Z,4.49
2023-04-25T02:18:41.689Z,4.60
2023-04-25T02:19:44.100Z,4.59
2023-04-25T02:20:46.361Z,4.59
2023-04-25T02:21:48.789Z,4.51
2023-04-25T02:22:50.429Z,4.62
2023-04-25T02:23:54.831Z,4.56
2023-04-25T02:24:56.891Z,4.65
2023-04-25T02:25:59.772Z,4.73
2023-04-25T02:27:01.366Z,4.59
2023-04-25T02:28:03.999Z,4.53
2023-04-25T02:29:05.804Z,4.62
2023-04-25T02:30:09.341Z,4.88
2023-04-25T02:31:11.774Z,5.05
2023-04-25T02:32:13.272Z,4.98
2023-04-25T02:33:17.926Z,5.25
2023-04-25T02:34:19.423Z,5.18
2023-04-25T02:35:21.958Z,5.15
2023-04-25T02:36:23.447Z,5.17
2023-04-25T02:37:26.233Z,5.19
2023-04-25T02:38:28.652Z,5.19
2023-04-25T02:39:31.483Z,5.47
2023-04-25T02:40:33.921Z,5.77
2023-04-25T02:41:35.555Z,5.58
2023-04-25T02:42:38.064Z,5.32
2023-04-25T02:43:39.514Z,5.29
2023-04-25T02:44:41.925Z,5.60
2023-04-25T02:45:43.585Z,5.46
2023-04-25T02:46:46.067Z,5.65
2023-04-25T02:47:47.623Z,5.66
2023-04-25T02:48:50.038Z,5.54
2023-04-25T02:49:51.613Z,5.73
2023-04-25T02:50:54.028Z,5.99
2023-04-25T02:51:55.510Z,5.86
2023-04-25T02:52:58.088Z,6.02
2023-04-25T02:53:59.706Z,6.09
2023-04-25T02:55:03.522Z,6.21
2023-04-25T02:56:05.772Z,6.02
2023-04-25T02:57:08.400Z,6.22
2023-04-25T02:58:09.890Z,6.40
2023-04-25T02:59:12.357Z,6.54
2023-04-25T03:00:15.264Z,6.58
2023-04-25T03:01:17.809Z,6.66
2023-04-25T03:02:19.472Z,6.51
2023-04-25T03:03:23.035Z,6.35
2023-04-25T03:04:24.933Z,6.55
2023-04-25T03:05:27.492Z,6.47
2023-04-25T03:06:28.971Z,6.30
2023-04-25T03:07:31.428Z,6.14
2023-04-25T03:08:33.676Z,5.89
2023-04-25T03:09:36.373Z,5.70
2023-04-25T03:10:39.474Z,5.90
2023-04-25T03:11:41.903Z,6.12
2023-04-25T03:12:43.392Z,6.17
2023-04-25T03:13:45.854Z,6.18
2023-04-25T03:14:47.355Z,5.80
2023-04-25T03:15:49.836Z,5.96
2023-04-25T03:16:51.393Z,5.61
2023-04-25T03:17:53.963Z,5.41
2023-04-25T03:18:55.534Z,5.49
2023-04-25T03:19:59.768Z,5.80
2023-04-25T03:21:01.295Z,5.77
2023-04-25T03:22:03.774Z,5.67
2023-04-25T03:23:05.431Z,5.89
2023-04-25T03:24:08.058Z,5.91
2023-04-25T03:25:09.528Z,5.71
2023-04-25T03:26:13.348Z,5.95
2023-04-25T03:27:14.855Z,6.07
2023-04-25T03:28:17.349Z,5.85
2023-04-25T03:29:18.928Z,6.12
2023-04-25T03:30:21.361Z,6.26
2023-04-25T03:31:23.362Z,5.86
2023-04-25T03:32:26.984Z,5.54
2023-04-25T03:33:28.483Z,5.34
2023-04-25T03:34:31.025Z,5.35
2023-04-25T03:35:32.588Z,5.55
2023-04-25T03:36:35.008Z,5.85
2023-04-25T03:37:36.525Z,6.05
2023-04-25T03:38:38.944Z,6.14
2023-04-25T03:39:40.464Z,5.82
2023-04-25T03:40:42.929Z,5.63
2023-04-25T03:41:45.909Z,5.49
2023-04-25T03:42:48.384Z,5.60
2023-04-25T03:43:50.138Z,5.59
2023-04-25T03:44:53.758Z,5.79
2023-04-25T03:45:56.094Z,5.79
2023-04-25T03:46:58.639Z,5.58
2023-04-25T03:48:00.212Z,5.41
2023-04-25T03:49:03.007Z,5.57
2023-04-25T03:50:05.061Z,5.75
2023-04-25T03:51:07.616Z,5.63
2023-04-25T03:52:09.169Z,5.84
2023-04-25T03:53:11.938Z,5.90
2023-04-25T03:54:13.456Z,5.74
2023-04-25T03:55:15.950Z,5.44
2023-04-25T03:56:17.431Z,5.46
2023-04-25T03:57:21.276Z,5.44
2023-04-25T03:58:24.119Z,5.60
2023-04-25T03:59:27.051Z,5.39
2023-04-25T04:00:28.594Z,5.25
2023-04-25T04:01:31.002Z,5.08
2023-04-25T04:02:34.163Z,5.05
2023-04-25T04:03:36.317Z,5.11
2023-04-25T04:04:39.058Z,5.13
2023-04-25T04:05:41.743Z,5.32
2023-04-25T04:06:44.256Z,5.34
2023-04-25T04:07:45.952Z,5.35
2023-04-25T04:08:48.446Z,5.42
2023-04-25T04:09:49.944Z,5.50
2023-04-25T04:10:52.377Z,5.33
2023-04-25T04:11:53.894Z,5.15
2023-04-25T04:12:57.812Z,5.27
2023-04-25T04:13:59.260Z,5.47
2023-04-25T04:15:01.718Z,5.55
2023-04-25T04:16:05.298Z,5.57
2023-04-25T04:17:07.926Z,5.47
2023-04-25T04:18:09.470Z,5.64
2023-04-25T04:19:11.998Z,5.84
2023-04-25T04:20:13.566Z,5.89
2023-04-25T04:21:16.230Z,5.71
2023-04-25T04:22:17.824Z,5.85
2023-04-25T04:23:21.425Z,5.90
2023-04-25T04:24:23.106Z,5.91
2023-04-25T04:25:25.884Z,5.90
2023-04-25T04:26:27.680Z,6.02
2023-04-25T04:27:30.310Z,6.01
2023-04-25T04:28:33.178Z,6.11
2023-04-25T04:29:35.999Z,6.17
2023-04-25T04:30:38.548Z,6.07
2023-04-25T04:31:41.506Z,5.93
2023-04-25T04:32:43.128Z,5.59
2023-04-25T04:33:45.774Z,5.73
2023-04-25T04:34:48.420Z,5.92
2023-04-25T04:35:53.323Z,5.93
2023-04-25T04:36:54.912Z,5.76
2023-04-25T04:37:57.435Z,5.78
2023-04-25T04:38:58.914Z,5.89
2023-04-25T04:40:02.252Z,6.10
2023-04-25T04:41:04.259Z,6.07
2023-04-25T04:42:06.920Z,6.23
2023-04-25T04:43:10.116Z,6.39
2023-04-25T04:44:15.095Z,6.40
2023-04-25T04:45:17.217Z,6.49
2023-04-25T04:46:19.785Z,6.56
2023-04-25T04:47:21.357Z,6.57
2023-04-25T04:48:23.898Z,6.56
2023-04-25T04:49:25.457Z,6.63
2023-04-25T04:50:28.587Z,6.76
2023-04-25T04:51:31.101Z,6.89
2023-04-25T04:52:33.637Z,7.03
2023-04-25T04:53:35.463Z,7.16
2023-04-25T04:54:38.180Z,7.17
2023-04-25T04:55:39.891Z,7.26
2023-04-25T04:56:42.849Z,7.25
2023-04-25T04:57:44.410Z,7.19
2023-04-25T04:58:46.956Z,7.22
2023-04-25T04:59:51.004Z,7.26
2023-04-25T05:00:53.500Z,7.31
2023-04-25T05:01:55.224Z,7.06
2023-04-25T05:02:58.036Z,7.03
2023-04-25T05:04:02.012Z,7.19
2023-04-25T05:05:05.335Z,7.06
2023-04-25T05:06:07.240Z,7.11
2023-04-25T05:07:09.705Z,7.18
2023-04-25T05:08:11.318Z,7.07
2023-04-25T05:09:13.730Z,6.97
2023-04-25T05:10:15.277Z,7.00
2023-04-25T05:11:17.702Z,7.05
2023-04-25T05:12:19.177Z,6.97
2023-04-25T05:13:21.694Z,6.97
2023-04-25T05:14:24.292Z,6.89
2023-04-25T05:15:28.146Z,6.99
2023-04-25T05:16:29.683Z,6.97
2023-04-25T05:17:32.187Z,7.15
2023-04-25T05:18:33.729Z,7.17
2023-04-25T05:19:36.446Z,7.20
2023-04-25T05:20:38.041Z,7.26
2023-04-25T05:21:40.613Z,7.30
2023-04-25T05:22:42.697Z,7.42
2023-04-25T05:23:45.257Z,7.58
2023-04-25T05:24:46.854Z,7.78
2023-04-25T05:25:49.349Z,7.78
2023-04-25T05:26:50.907Z,7.90
2023-04-25T05:27:53.545Z,7.90
2023-04-25T05:28:55.237Z,7.68
2023-04-25T05:29:57.700Z,7.53
2023-04-25T05:31:01.180Z,7.47
2023-04-25T05:32:03.773Z,7.51
2023-04-25T05:33:05.530Z,7.43
2023-04-25T05:34:08.266Z,7.40
2023-04-25T05:35:10.022Z,7.55
2023-04-25T05:36:12.672Z,7.50
2023-04-25T05:37:14.194Z,7.54
2023-04-25T05:38:16.703Z,7.51
2023-04-25T05:39:18.612Z,7.53
2023-04-25T05:40:21.281Z,7.64
2023-04-25T05:41:22.791Z,7.76
2023-04-25T05:42:25.233Z,7.62
2023-04-25T05:43:26.715Z,7.57
2023-04-25T05:44:29.844Z,7.51
2023-04-25T05:45:31.476Z,7.43
2023-04-25T05:46:35.594Z,7.46
2023-04-25T05:47:37.138Z,7.51
2023-04-25T05:48:39.810Z,7.62
2023-04-25T05:49:41.367Z,7.81
2023-04-25T05:50:44.774Z,7.81
2023-04-25T05:51:46.328Z,7.75
2023-04-25T05:52:48.871Z,7.70
2023-04-25T05:53:50.802Z,7.77
2023-04-25T05:54:53.451Z,7.90
2023-04-25T05:55:55.401Z,7.98
2023-04-25T05:56:58.413Z,7.86
2023-04-25T05:57:59.904Z,7.77
2023-04-25T05:59:02.358Z,7.95
2023-04-25T06:00:05.107Z,8.11
2023-04-25T06:01:07.646Z,7.93
2023-04-25T06:02:10.559Z,7.89
2023-04-25T06:03:17.849Z,8.04
2023-04-25T06:04:21.616Z,8.16
2023-04-25T06:05:24.710Z,7.97
2023-04-25T06:06:27.835Z,8.17
2023-04-25T06:07:30.857Z,8.04
2023-04-25T06:08:32.778Z,7.97
2023-04-25T06:09:35.740Z,7.88
2023-04-25T06:10:37.567Z,7.90
2023-04-25T06:11:40.089Z,7.79
2023-04-25T06:12:41.687Z,7.73
2023-04-25T06:13:44.167Z,7.70
2023-04-25T06:14:45.806Z,7.79
2023-04-25T06:15:48.293Z,7.81
2023-04-25T06:16:49.855Z,7.79
2023-04-25T06:17:53.869Z,7.70
2023-04-25T06:18:56.342Z,7.84
2023-04-25T06:19:57.861Z,7.80
2023-04-25T06:21:00.389Z,7.77
2023-04-25T06:22:02.277Z,7.81
2023-04-25T06:23:04.700Z,7.95
2023-04-25T06:24:07.605Z,7.99
2023-04-25T06:25:09.740Z,8.17
2023-04-25T06:26:12.246Z,8.45
2023-04-25T06:27:15.785Z,8.50
2023-04-25T06:28:39.698Z,8.64
2023-04-25T06:30:02.309Z,8.86
2023-04-25T06:31:25.097Z,8.68
2023-04-25T06:32:47.728Z,8.51
2023-04-25T06:34:11.641Z,8.66
2023-04-25T06:35:33.360Z,8.75
2023-04-25T06:36:42.483Z,8.98
2023-04-25T06:37:44.108Z,8.86
2023-04-25T06:39:07.028Z,9.06
2023-04-25T06:40:29.471Z,8.99
2023-04-25T06:41:52.264Z,9.33
2023-04-25T06:42:54.005Z,9.45
2023-04-25T06:44:16.693Z,9.26
2023-04-25T06:45:38.161Z,9.35
2023-04-25T06:47:00.838Z,9.35
2023-04-25T06:48:23.496Z,9.30
2023-04-25T06:49:47.551Z,9.34
2023-04-25T06:51:10.001Z,9.31
2023-04-25T06:52:32.438Z,9.13
2023-04-25T06:53:55.477Z,9.08
2023-04-25T06:55:18.226Z,9.30
2023-04-25T06:56:40.742Z,9.49
2023-04-25T06:58:03.178Z,9.52
2023-04-25T06:59:25.699Z,9.38
2023-04-25T07:00:48.238Z,9.42
2023-04-25T07:02:10.783Z,9.68
2023-04-25T07:03:33.427Z,9.84
2023-04-25T07:05:00.714Z,9.96
2023-04-25T07:06:23.288Z,9.79
2023-04-25T07:07:45.810Z,9.80
2023-04-25T07:09:08.408Z,9.62
2023-04-25T07:10:31.164Z,9.49
2023-04-25T07:11:57.491Z,9.48
2023-04-25T07:13:19.994Z,9.60
2023-04-25T07:14:42.442Z,9.58
2023-04-25T07:16:05.990Z,9.60
2023-04-25T07:17:28.537Z,9.53
2023-04-25T07:18:51.240Z,9.49
2023-04-25T07:20:15.277Z,9.57
2023-04-25T07:21:37.797Z,9.72
2023-04-25T07:23:00.457Z,9.68
2023-04-25T07:24:23.229Z,9.63
2023-04-25T07:25:45.668Z,9.67
2023-04-25T07:27:08.153Z,9.59
2023-04-25T07:28:30.613Z,9.62
2023-04-25T07:29:53.150Z,9.58
2023-04-25T07:31:18.398Z,9.43
2023-04-25T07:32:41.171Z,9.48
2023-04-25T07:34:06.790Z,9.45
2023-04-25T07:35:30.680Z,9.73
2023-04-25T07:36:52.346Z,9.78
2023-04-25T07:38:14.885Z,9.60
2023-04-25T07:39:38.103Z,9.62
2023-04-25T07:41:00.761Z,9.72
2023-04-25T07:42:23.221Z,9.88
2023-04-25T07:43:46.502Z,10.07
2023-04-25T07:45:10.487Z,10.24
2023-04-25T07:46:33.009Z,10.34
2023-04-25T07:47:55.559Z,10.16
2023-04-25T07:49:18.042Z,10.09
2023-04-25T07:50:41.800Z,10.13
2023-04-25T07:52:05.324Z,10.02
2023-04-25T07:53:27.831Z,10.19
2023-04-25T07:54:50.352Z,10.04
2023-04-25T07:56:12.903Z,9.93
2023-04-25T07:57:35.535Z,9.64
2023-04-25T07:58:58.175Z,9.60
2023-04-25T08:00:21.068Z,9.53
2023-04-25T08:01:43.544Z,9.53
2023-04-25T08:03:07.657Z,9.62
2023-04-25T08:04:30.674Z,9.66
2023-04-25T08:05:32.726Z,9.74
2023-04-25T08:06:56.647Z,9.82
2023-04-25T08:08:19.098Z,9.86
2023-04-25T08:09:41.812Z,9.96
2023-04-25T08:11:04.322Z,9.94
2023-04-25T08:12:26.985Z,10.07
2023-04-25T08:13:49.572Z,9.92
2023-04-25T08:15:14.748Z,9.88
2023-04-25T08:16:37.280Z,10.04
2023-04-25T08:18:00.559Z,10.16
2023-04-25T08:19:23.089Z,10.17
2023-04-25T08:20:46.051Z,10.31
2023-04-25T08:22:09.894Z,10.15
2023-04-25T08:23:32.548Z,10.15
2023-04-25T08:24:55.028Z,10.04
2023-04-25T08:26:17.447Z,9.85
2023-04-25T08:27:39.909Z,9.36
2023-04-25T08:29:02.385Z,9.29
2023-04-25T08:30:25.059Z,9.44
2023-04-25T08:31:47.909Z,9.35
2023-04-25T08:33:11.269Z,9.72
2023-04-25T08:34:37.826Z,9.66
2023-04-25T08:36:00.408Z,9.55
2023-04-25T08:37:24.256Z,9.44
2023-04-25T08:38:46.718Z,9.64
2023-04-25T08:40:14.140Z,9.71
2023-04-25T08:41:38.857Z,9.74
2023-04-25T08:43:04.249Z,9.42
2023-04-25T08:44:26.899Z,9.47
2023-04-25T08:45:49.396Z,9.40
2023-04-25T08:47:11.963Z,9.36
2023-04-25T08:48:35.781Z,9.33
2023-04-25T08:49:58.311Z,9.28
2023-04-25T08:51:25.821Z,9.53
2023-04-25T08:52:53.782Z,9.47
2023-04-25T08:54:30.760Z,9.43
2023-04-25T08:56:02.755Z,9.42
2023-04-25T08:57:26.109Z,9.48
2023-04-25T08:58:50.024Z,9.36
2023-04-25T09:00:15.093Z,9.34
2023-04-25T09:01:38.062Z,9.39
2023-04-25T09:03:01.437Z,9.57
2023-04-25T09:04:24.157Z,9.46
2023-04-25T09:05:47.225Z,9.60
2023-04-25T09:07:09.737Z,9.65
2023-04-25T09:08:33.863Z,9.63
2023-04-25T09:09:56.593Z,9.96
2023-04-25T09:11:20.532Z,9.98
2023-04-25T09:12:44.453Z,10.02
2023-04-25T09:14:16.964Z,10.28
2023-04-25T09:15:50.464Z,10.19
2023-04-25T09:17:13.205Z,10.00
2023-04-25T09:18:37.238Z,10.21
2023-04-25T09:20:09.293Z,10.30
2023-04-25T09:21:32.078Z,10.15
2023-04-25T09:23:04.114Z,10.16
2023-04-25T09:24:36.660Z,10.33
2023-04-25T09:25:59.186Z,10.63
2023-04-25T09:27:24.018Z,10.45
2023-04-25T09:28:48.917Z,10.53
2023-04-25T09:30:12.744Z,10.32
2023-04-25T09:31:35.621Z,10.41
2023-04-25T09:32:58.168Z,10.60
2023-04-25T09:34:20.831Z,10.59
2023-04-25T09:35:45.028Z,10.58
2023-04-25T09:37:07.863Z,10.31
2023-04-25T09:38:32.597Z,10.56
2023-04-25T09:39:59.819Z,10.43
2023-04-25T09:41:25.572Z,10.61
2023-04-25T09:42:48.215Z,10.85
2023-04-25T09:44:14.677Z,10.32
2023-04-25T09:45:46.508Z,10.73
2023-04-25T09:47:12.187Z,10.78
2023-04-25T09:48:34.676Z,10.88
2023-04-25T09:49:57.608Z,10.92
2023-04-25T09:51:20.390Z,11.03
2023-04-25T09:52:43.291Z,10.87
2023-04-25T09:54:06.295Z,10.63
2023-04-25T09:55:30.284Z,10.29
2023-04-25T09:56:54.457Z,10.45
2023-04-25T09:58:17.377Z,10.76
2023-04-25T09:59:41.856Z,10.76
2023-04-25T10:01:07.560Z,10.80
2023-04-25T10:02:30.288Z,10.79
2023-04-25T10:03:56.674Z,10.77
2023-04-25T10:05:19.874Z,10.76
2023-04-25T10:06:44.999Z,10.74
2023-04-25T10:08:09.652Z,10.65
2023-04-25T10:09:34.993Z,10.43
2023-04-25T10:11:00.609Z,10.42
2023-04-25T10:12:23.933Z,10.68
2023-04-25T10:13:48.941Z,10.68
2023-04-25T10:15:13.785Z,10.85
2023-04-25T10:16:37.707Z,10.96
2023-04-25T10:18:00.803Z,11.00
2023-04-25T10:19:23.956Z,10.94
2023-04-25T10:20:46.738Z,11.00
2023-04-25T10:22:14.022Z,11.07
2023-04-25T10:23:37.948Z,10.91
2023-04-25T10:25:00.802Z,10.87
2023-04-25T10:26:25.577Z,10.81
2023-04-25T10:27:48.362Z,10.80
2023-04-25T10:29:11.600Z,10.86
2023-04-25T10:30:34.301Z,10.72
2023-04-25T10:31:57.741Z,10.67
2023-04-25T10:33:20.751Z,10.38
2023-04-25T10:34:47.987Z,10.42
2023-04-25T10:36:12.196Z,10.24
2023-04-25T10:37:34.942Z,10.15
2023-04-25T10:38:59.104Z,9.88
2023-04-25T10:40:24.034Z,9.91
2023-04-25T10:41:55.827Z,9.86
2023-04-25T10:43:36.881Z,10.23
2023-04-25T10:45:08.028Z,10.49
2023-04-25T10:46:31.776Z,10.41
2023-04-25T10:47:54.443Z,10.23
2023-04-25T10:49:34.299Z,10.42
2023-04-25T10:51:10.211Z,10.63
2023-04-25T10:52:35.004Z,10.49
2023-04-25T10:54:02.326Z,10.82
2023-04-25T10:55:25.192Z,11.04
2023-04-25T10:56:50.441Z,11.21
2023-04-25T10:58:14.376Z,11.09
2023-04-25T10:59:37.409Z,11.24
2023-04-25T11:01:00.031Z,11.29
2023-04-25T11:02:22.719Z,11.34
2023-04-25T11:03:46.322Z,11.10
2023-04-25T11:05:09.842Z,11.03
2023-04-25T11:06:45.871Z,11.09
2023-04-25T11:08:12.803Z,11.25
2023-04-25T11:09:36.058Z,11.47
2023-04-25T11:10:58.935Z,11.65
2023-04-25T11:12:21.775Z,11.76
2023-04-25T11:13:46.196Z,11.81
2023-04-25T11:15:09.911Z,12.08
2023-04-25T11:16:33.350Z,12.09
2023-04-25T11:17:56.991Z,12.23
2023-04-25T11:19:21.406Z,12.27
2023-04-25T11:20:45.605Z,11.74
2023-04-25T11:22:08.859Z,11.94
2023-04-25T11:23:32.221Z,12.27
2023-04-25T11:24:54.871Z,12.19
2023-04-25T11:26:17.452Z,11.93
2023-04-25T11:27:42.040Z,11.98
2023-04-25T11:29:05.900Z,12.07
2023-04-25T11:30:29.744Z,11.77
2023-04-25T11:31:52.918Z,11.90
2023-04-25T11:33:15.424Z,11.36
2023-04-25T11:34:37.944Z,11.37
2023-04-25T11:36:00.822Z,11.49
2023-04-25T11:37:23.538Z,11.28
2023-04-25T11:38:46.108Z,11.39
2023-04-25T11:40:10.595Z,11.76
2023-04-25T11:41:33.358Z,11.99
2023-04-25T11:42:56.002Z,11.83
2023-04-25T11:44:20.532Z,11.93
2023-04-25T11:45:43.325Z,12.12
2023-04-25T11:47:05.908Z,12.04
2023-04-25T11:48:28.428Z,12.07
2023-04-25T11:49:50.961Z,11.87
2023-04-25T11:51:14.582Z,12.15
2023-04-25T11:52:38.633Z,12.44
2023-04-25T11:54:01.340Z,12.60
2023-04-25T11:55:23.843Z,12.33
2023-04-25T11:56:47.488Z,12.25
2023-04-25T11:58:10.293Z,12.37
2023-04-25T11:59:34.195Z,12.34
2023-04-25T12:00:59.739Z,11.61
2023-04-25T12:02:28.657Z,11.27
2023-04-25T12:03:51.993Z,11.31
2023-04-25T12:05:31.066Z,11.44
2023-04-25T12:06:57.143Z,11.89
2023-04-25T12:08:19.777Z,12.29
2023-04-25T12:09:42.603Z,12.77
2023-04-25T12:11:06.022Z,13.43
2023-04-25T12:12:34.021Z,14.59
2023-04-25T12:13:57.170Z,15.34
2023-04-25T12:15:26.278Z,16.03
2023-04-25T12:16:50.392Z,15.73
2023-04-25T12:18:12.934Z,16.14
2023-04-25T12:19:37.667Z,15.80
2023-04-25T12:21:01.065Z,15.33
2023-04-25T12:22:25.711Z,14.86
2023-04-25T12:23:48.246Z,14.50
2023-04-25T12:25:11.659Z,14.52
2023-04-25T12:26:48.930Z,14.38
2023-04-25T12:28:13.314Z,14.21
2023-04-25T12:29:48.628Z,14.09
2023-04-25T12:31:16.112Z,13.30
2023-04-25T12:32:40.200Z,13.09
2023-04-25T12:34:03.367Z,12.30
2023-04-25T12:35:26.113Z,12.19
2023-04-25T12:36:49.043Z,12.20
2023-04-25T12:38:11.718Z,12.17
2023-04-25T12:39:35.299Z,12.05
2023-04-25T12:40:59.864Z,12.01
2023-04-25T12:42:22.514Z,11.96
2023-04-25T12:43:45.198Z,12.18
2023-04-25T12:45:08.772Z,12.23
2023-04-25T12:46:32.794Z,12.18
2023-04-25T12:47:55.320Z,12.12
2023-04-25T12:49:19.418Z,11.99
2023-04-25T12:50:43.472Z,11.71
2023-04-25T12:52:06.085Z,11.91
2023-04-25T12:53:28.665Z,11.78
2023-04-25T12:54:51.108Z,11.80
2023-04-25T12:56:14.026Z,11.71
2023-04-25T12:57:36.619Z,11.84
2023-04-25T12:58:59.158Z,11.58
2023-04-25T13:00:22.307Z,11.59
2023-04-25T13:01:46.580Z,11.46
2023-04-25T13:03:10.416Z,11.58
2023-04-25T13:04:33.268Z,11.61
2023-04-25T13:05:56.358Z,11.75
2023-04-25T13:07:19.129Z,11.74
2023-04-25T13:08:42.453Z,11.84
2023-04-25T13:10:05.524Z,11.93
2023-04-25T13:11:28.191Z,12.01
2023-04-25T13:12:51.530Z,12.03
2023-04-25T13:14:14.097Z,12.02
2023-04-25T13:15:36.653Z,12.09
2023-04-25T13:17:01.074Z,12.44
2023-04-25T13:18:27.258Z,12.36
2023-04-25T13:19:49.761Z,12.37
2023-04-25T13:21:12.878Z,12.58
2023-04-25T13:22:37.521Z,12.52
2023-04-25T13:24:00.037Z,12.85
2023-04-25T13:25:23.316Z,13.02
2023-04-25T13:26:46.126Z,13.31
2023-04-25T13:28:08.765Z,13.02
2023-04-25T13:29:31.287Z,13.29
2023-04-25T13:30:53.873Z,13.32
2023-04-25T13:32:17.849Z,13.36
2023-04-25T13:33:40.749Z,13.19
2023-04-25T13:35:07.138Z,13.12
2023-04-25T13:36:31.511Z,13.21
2023-04-25T13:37:54.237Z,13.46
2023-04-25T13:39:16.637Z,13.71
2023-04-25T13:40:39.106Z,14.00
2023-04-25T13:42:02.862Z,13.97
2023-04-25T13:43:25.344Z,13.86
2023-04-25T13:44:47.818Z,13.93
2023-04-25T13:46:24.867Z,14.10
2023-04-25T13:47:54.720Z,13.84
2023-04-25T13:49:17.450Z,13.60
2023-04-25T13:50:40.625Z,13.77
2023-04-25T13:52:03.316Z,14.23
2023-04-25T13:53:26.077Z,13.99
2023-04-25T13:54:48.988Z,13.83
2023-04-25T13:56:12.653Z,13.78
2023-04-25T13:57:35.310Z,13.89
2023-04-25T13:58:58.319Z,14.12
2023-04-25T14:00:21.321Z,14.04
2023-04-25T14:01:43.892Z,13.84
2023-04-25T14:03:08.795Z,13.69
2023-04-25T14:04:31.746Z,13.77
2023-04-25T14:05:54.304Z,13.80
2023-04-25T14:07:18.010Z,13.90
2023-04-25T14:08:41.132Z,14.04
2023-04-25T14:10:05.322Z,14.09
2023-04-25T14:11:27.906Z,14.00
2023-04-25T14:12:50.365Z,14.09
2023-04-25T14:14:13.116Z,13.78
2023-04-25T14:15:36.236Z,13.80
2023-04-25T14:16:58.715Z,14.01
2023-04-25T14:18:22.613Z,14.12
2023-04-25T14:19:46.647Z,14.24
2023-04-25T14:21:09.336Z,14.38
2023-04-25T14:22:31.801Z,13.98
2023-04-25T14:23:54.768Z,13.67
2023-04-25T14:25:17.883Z,13.41
2023-04-25T14:26:40.533Z,13.24
2023-04-25T14:28:03.325Z,13.48
2023-04-25T14:29:26.204Z,13.81
2023-04-25T14:30:48.686Z,13.81
2023-04-25T14:32:12.066Z,13.53
2023-04-25T14:33:36.342Z,13.36
2023-04-25T14:34:58.987Z,13.24
2023-04-25T14:36:22.181Z,13.02
2023-04-25T14:37:45.084Z,13.13
2023-04-25T14:39:07.899Z,13.19
2023-04-25T14:40:30.584Z,13.01
2023-04-25T14:41:53.006Z,12.72
2023-04-25T14:43:15.545Z,12.61
2023-04-25T14:44:38.045Z,12.81
2023-04-25T14:46:01.128Z,12.69
2023-04-25T14:47:23.781Z,12.66
2023-04-25T14:48:48.095Z,12.82
2023-04-25T14:50:12.217Z,12.80
2023-04-25T14:51:35.374Z,12.82
2023-04-25T14:53:00.025Z,12.88
2023-04-25T14:54:21.580Z,13.15
2023-04-25T14:55:44.139Z,13.24
2023-04-25T14:57:06.785Z,12.99
2023-04-25T14:58:28.376Z,13.23
2023-04-25T14:59:51.638Z,13.09
2023-04-25T15:01:14.960Z,12.98
2023-04-25T15:02:38.109Z,12.82
2023-04-25T15:04:02.326Z,12.92
2023-04-25T15:05:25.156Z,13.24
2023-04-25T15:06:47.923Z,13.36
2023-04-25T15:08:11.297Z,13.26
2023-04-25T15:09:33.790Z,13.11
2023-04-25T15:10:56.282Z,12.94
2023-04-25T15:12:18.846Z,12.74
2023-04-25T15:13:41.542Z,12.79
2023-04-25T15:15:04.496Z,12.71
2023-04-25T15:16:26.512Z,12.43
2023-04-25T15:17:49.234Z,12.58
2023-04-25T15:19:13.231Z,12.69
2023-04-25T15:20:36.438Z,12.93
2023-04-25T15:22:01.487Z,13.12
2023-04-25T15:23:25.317Z,13.18
2023-04-25T15:24:48.952Z,13.82
2023-04-25T15:26:11.862Z,13.83
2023-04-25T15:27:34.494Z,14.14
2023-04-25T15:28:56.958Z,13.68
2023-04-25T15:30:20.699Z,13.63
2023-04-25T15:31:43.280Z,13.81
2023-04-25T15:33:06.087Z,13.61
2023-04-25T15:34:30.121Z,13.56
2023-04-25T15:35:52.542Z,13.69
2023-04-25T15:37:15.048Z,13.42
2023-04-25T15:38:37.703Z,13.45
2023-04-25T15:40:09.707Z,13.40
2023-04-25T15:41:32.241Z,13.23
2023-04-25T15:42:55.288Z,13.10
2023-04-25T15:44:17.726Z,13.07
2023-04-25T15:45:40.248Z,13.27
2023-04-25T15:47:03.127Z,13.65
2023-04-25T15:48:24.732Z,13.88
2023-04-25T15:49:49.239Z,13.93
2023-04-25T15:51:12.215Z,13.81
2023-04-25T15:52:35.162Z,13.30
2023-04-25T15:53:57.687Z,13.53
2023-04-25T15:55:21.996Z,13.56
2023-04-25T15:56:44.973Z,13.57
2023-04-25T15:58:08.176Z,13.42
2023-04-25T15:59:31.653Z,13.42
2023-04-25T16:00:55.645Z,13.45
2023-04-25T16:02:18.979Z,13.31
2023-04-25T16:03:41.718Z,12.87
2023-04-25T16:05:05.477Z,13.15
2023-04-25T16:06:28.499Z,13.36
2023-04-25T16:07:53.618Z,13.17
2023-04-25T16:09:17.556Z,13.06